Latest Weather Observations for Port Hedland

IDW60801

Issued at 11:33 am WST Tuesday 22 August 2017 (issued every 30 minutes, with the page automatically refreshed every 10 minutes)

About weather observations | Map of weather stations | Latest weather observations for WA | Other Formats
Station Details ID: 004032 Name: PORT HEDLAND AIRPORT Lat: -20.37 Lon: 118.63 Height: 6.4 m
Data from the previous 72 hours. | See also: Recent months at Port Hedland
Date/Time
WST
Temp
°C
App
Temp
°C
Dew
Point
°C
Rel
Hum
%
Delta-T
°C
Wind Press
QNH
hPa
Press
MSL
hPa
Rain since
9am
mm
Dir  Spd
km/h
Gust
km/h
Spd
kts
Gust
kts
22/11:00am 31.0 28.9 8.1 24 12.6 ENE 9 13 5 7 1016.4 - 0.0
22/10:30am 30.0 27.8 7.8 25 12.1 SSW 9 15 5 8 1016.7 - 0.0
22/10:00am 29.2 27.5 8.3 27 11.4 S 7 15 4 8 1016.9 - 0.0
22/09:30am 28.4 26.3 8.1 28 11.0 S 9 15 5 8 1016.9 - 0.0
22/09:00am 27.7 25.1 9.5 32 10.1 S 13 17 7 9 1016.8 1016.8 0.0
22/08:30am 26.5 24.3 9.4 34 9.4 S 11 15 6 8 1016.6 - 0.0
22/08:00am 24.0 22.4 11.7 46 6.9 S 11 15 6 8 1016.3 - 0.0
22/07:30am 20.5 19.7 13.0 62 4.3 SSE 9 11 5 6 1016.3 - 0.0
22/07:00am 17.7 16.9 13.0 74 2.6 S 9 11 5 6 1016.0 - 0.0
22/06:30am 16.8 15.9 12.7 77 2.3 S 9 11 5 6 1015.8 - 0.0
22/06:00am 16.4 15.3 13.1 81 1.8 S 11 13 6 7 1015.6 1015.6 0.0
22/05:30am 16.6 15.6 13.5 82 1.7 S 11 13 6 7 1015.2 - 0.0
22/05:00am 16.4 15.9 13.7 84 1.5 S 9 11 5 6 1015.1 - 0.0
22/04:30am 16.2 16.1 13.9 86 1.3 SSE 7 9 4 5 1015.0 - 0.0
22/04:00am 16.3 16.2 13.8 85 1.4 SE 7 9 4 5 1015.0 - 0.0
22/03:30am 16.5 15.6 13.8 84 1.5 S 11 13 6 7 1015.0 - 0.0
22/03:00am 16.9 16.2 14.2 84 1.5 SSE 11 13 6 7 1015.0 1015.0 0.0
22/02:30am 16.7 16.7 14.3 86 1.4 SE 7 9 4 5 1015.2 - 0.0
22/02:00am 17.1 16.8 14.4 84 1.5 SSE 9 11 5 6 1015.1 - 0.0
22/01:30am 18.1 17.9 14.8 81 1.9 S 9 15 5 8 1015.3 - 0.0
22/01:00am 18.1 18.0 15.9 87 1.3 SSW 11 13 6 7 1015.2 - 0.0
22/12:30am 17.8 17.3 14.9 83 1.7 SSW 11 13 6 7 1015.4 - 0.0
22/12:00am 18.1 17.6 15.0 82 1.8 SSW 11 15 6 8 1015.4 1015.4 0.0
 
Date/Time
WST
Temp
°C
App
Temp
°C
Dew
Point
°C
Rel
Hum
%
Delta-T
°C
Wind Press
QNH
hPa
Press
MSL
hPa
Rain since
9am
mm
Dir  Spd
km/h
Gust
km/h
Spd
kts
Gust
kts
21/11:30pm 18.7 19.0 15.0 79 2.2 S 7 11 4 6 1015.5 - 0.0
21/11:00pm 19.5 19.8 16.0 80 2.1 S 9 13 5 7 1015.6 - 0.0
21/10:30pm 19.8 20.4 16.8 83 1.8 SSW 9 11 5 6 1015.6 - 0.0
21/10:00pm 19.5 19.8 16.9 85 1.6 SSW 11 11 6 6 1015.6 - 0.0
21/09:30pm 19.9 20.3 16.3 80 2.2 SW 9 11 5 6 1015.5 - 0.0
21/09:00pm 20.5 21.5 16.9 80 2.2 SSW 7 7 4 4 1015.6 1015.6 0.0
21/08:30pm 20.6 21.7 17.0 80 2.2 WNW 7 7 4 4 1015.5 - 0.0
21/08:00pm 20.3 20.3 16.3 78 2.4 WNW 11 11 6 6 1015.2 - 0.0
21/07:30pm 20.9 21.2 16.1 74 2.9 WNW 9 11 5 6 1015.0 - 0.0
21/07:00pm 21.4 22.0 15.7 70 3.4 WNW 7 9 4 5 1014.7 - 0.0
21/06:30pm 22.2 22.0 15.8 67 3.8 NW 11 13 6 7 1014.3 - 0.0
21/06:00pm 23.2 22.5 16.3 65 4.2 NNW 15 20 8 11 1014.0 1014.0 0.0
21/05:30pm 24.1 22.2 15.1 57 5.4 NNW 19 24 10 13 1013.8 - 0.0
21/05:00pm 25.2 22.7 14.0 49 6.6 NNW 20 28 11 15 1013.5 - 0.0
21/04:30pm 26.1 23.2 12.9 44 7.7 NNW 20 26 11 14 1013.3 - 0.0
21/04:00pm 26.2 21.9 10.8 38 8.7 N 24 32 13 17 1013.0 - 0.0
21/03:30pm 28.0 24.6 12.4 38 9.1 N 22 26 12 14 1012.8 - 0.0
21/03:00pm 28.0 25.6 15.3 46 7.7 N 22 26 12 14 1012.8 1012.8 0.0
21/02:30pm 30.3 27.3 11.8 32 10.8 N 19 22 10 12 1012.8 - 0.0
21/02:00pm 31.7 27.2 6.0 20 13.7 NNE 19 22 10 12 1012.9 - 0.0
21/01:30pm 31.1 26.7 4.8 19 13.7 N 17 24 9 13 1013.2 - 0.0
21/01:00pm 30.9 26.1 4.6 19 13.7 N 19 24 10 13 1013.8 - 0.0
21/12:30pm 31.8 27.2 3.8 17 14.4 NE 17 22 9 12 1014.1 - 0.0
21/12:00pm 31.2 26.4 2.4 16 14.4 ESE 17 26 9 14 1014.4 1014.4 0.0
21/11:30am 30.3 24.8 0.8 15 14.3 E 19 26 10 14 1015.0 - 0.0
21/11:00am 29.3 23.4 1.7 17 13.5 ESE 22 30 12 16 1015.5 - 0.0
21/10:30am 28.5 22.4 0.3 16 13.4 ESE 22 33 12 18 1015.8 - 0.0
21/10:00am 28.1 21.3 0.8 17 13.0 E 26 37 14 20 1016.1 - 0.0
21/09:30am 26.6 19.2 -0.4 17 12.5 ESE 28 35 15 19 1016.1 - 0.0
21/09:00am 25.2 17.8 -0.8 18 11.8 ESE 28 35 15 19 1016.0 1016.0 0.0
21/08:30am 24.2 16.0 -0.9 19 11.3 ESE 32 41 17 22 1015.9 - 0.0
21/08:00am 23.2 16.6 -0.3 21 10.6 ESE 24 37 13 20 1015.9 - 0.0
21/07:30am 20.9 16.6 3.2 31 8.4 ESE 15 20 8 11 1015.9 - 0.0
21/07:00am 18.6 15.9 5.8 43 6.3 ESE 9 11 5 6 1015.7 - 0.0
21/06:30am 15.4 13.5 6.9 57 4.2 SE 6 6 3 3 1015.2 - 0.0
21/06:00am 15.5 13.8 7.5 59 4.0 SSE 6 7 3 4 1014.8 1014.8 0.0
21/05:30am 15.6 13.8 8.1 61 3.8 S 7 9 4 5 1014.5 - 0.0
21/05:00am 16.3 14.5 8.0 58 4.2 S 7 9 4 5 1014.3 - 0.0
21/04:30am 17.2 15.1 8.1 55 4.6 S 9 13 5 7 1014.1 - 0.0
21/04:00am 17.4 15.2 8.0 54 4.8 S 9 11 5 6 1014.1 - 0.0
21/03:30am 17.1 15.2 9.0 59 4.2 S 9 11 5 6 1014.1 - 0.0
21/03:00am 19.3 16.0 8.0 48 5.8 SE 15 20 8 11 1014.4 1014.4 0.0
21/02:30am 18.5 16.5 10.3 59 4.4 SE 11 15 6 8 1014.3 - 0.0
21/02:00am 17.5 15.7 12.2 71 2.9 SSE 13 15 7 8 1014.2 - 0.0
21/01:30am 18.0 16.8 13.9 77 2.3 SSE 13 15 7 8 1014.2 - 0.0
21/01:00am 18.3 17.5 14.0 76 2.5 SSE 11 13 6 7 1014.3 - 0.0
21/12:30am 18.4 17.9 13.9 75 2.6 SSE 9 11 5 6 1014.5 - 0.0
21/12:00am 19.1 18.6 14.8 76 2.5 SSE 11 13 6 7 1014.5 1014.5 0.0
 
Date/Time
WST
Temp
°C
App
Temp
°C
Dew
Point
°C
Rel
Hum
%
Delta-T
°C
Wind Press
QNH
hPa
Press
MSL
hPa
Rain since
9am
mm
Dir  Spd
km/h
Gust
km/h
Spd
kts
Gust
kts
20/11:30pm 19.5 19.8 15.0 75 2.6 S 7 11 4 6 1014.4 - 0.0
20/11:00pm 19.8 19.8 15.2 75 2.7 S 9 11 5 6 1014.5 - 0.0
20/10:30pm 19.8 20.0 14.8 73 2.9 S 7 9 4 5 1014.5 - 0.0
20/10:00pm 20.1 20.4 15.1 73 2.9 S 7 11 4 6 1014.8 - 0.0
20/09:30pm 20.3 21.7 15.3 73 3.0 W 2 7 1 4 1014.5 - 0.0
20/09:00pm 20.5 20.4 16.1 76 2.6 SW 11 13 6 7 1014.6 1014.6 0.0
20/08:30pm 21.0 20.7 16.4 75 2.8 SW 13 17 7 9 1014.4 - 0.0
20/08:00pm 22.3 23.6 17.0 72 3.2 NNE 6 7 3 4 1014.1 - 0.0
20/07:30pm 22.4 23.4 16.4 69 3.6 N 6 7 3 4 1013.9 - 0.0
20/07:00pm 22.7 23.0 16.0 66 4.0 NNW 9 11 5 6 1013.6 - 0.0
20/06:30pm 23.4 24.3 16.7 66 4.1 NNW 7 11 4 6 1013.3 - 0.0
20/06:00pm 24.3 23.8 15.8 59 5.1 N 13 15 7 8 1013.2 1013.2 0.0
20/05:30pm 25.9 24.3 15.0 51 6.6 N 17 22 9 12 1012.9 - 0.0
20/05:00pm 28.6 25.9 11.6 34 9.8 N 17 20 9 11 1012.6 - 0.0
20/04:30pm 30.9 28.0 9.7 27 12.0 N 15 19 8 10 1012.3 - 0.0
20/04:00pm 31.5 29.0 9.7 26 12.4 NNE 13 17 7 9 1012.2 - 0.0
20/03:30pm 31.1 28.1 9.3 26 12.2 NNE 15 19 8 10 1012.1 - 0.0
20/03:00pm 31.4 28.7 10.2 27 12.1 NNE 15 20 8 11 1012.3 1012.3 0.0
20/02:30pm 31.7 29.0 10.4 27 12.2 N 15 22 8 12 1012.5 - 0.0
20/02:00pm 32.0 28.5 10.1 26 12.5 NE 19 28 10 15 1012.8 - 0.0
20/01:30pm 31.8 28.9 8.1 23 13.1 SSE 13 20 7 11 1013.4 - 0.0
20/01:00pm 31.6 29.2 8.6 24 12.8 E 11 17 6 9 1013.9 - 0.0
20/12:30pm 31.6 28.6 9.2 25 12.6 ESE 15 26 8 14 1014.4 - 0.0
20/12:00pm 30.9 27.4 8.6 25 12.4 SE 17 26 9 14 1014.9 1014.9 0.0
20/11:30am 30.0 26.2 9.0 27 11.7 ESE 19 26 10 14 1015.5 - 0.0
20/11:00am 28.9 24.4 8.6 28 11.2 ESE 22 28 12 15 1015.9 - 0.0
20/10:30am 28.6 24.5 8.8 29 10.9 SE 20 30 11 16 1016.3 - 0.0
20/10:00am 27.8 23.3 8.6 30 10.5 SE 22 30 12 16 1016.7 - 0.0
20/09:30am 27.1 22.8 9.5 33 9.7 SE 22 30 12 16 1016.7 - 0.0
20/09:00am 25.5 20.9 9.7 37 8.7 SE 24 32 13 17 1016.8 1016.8 0.0
20/08:30am 24.5 23.3 16.0 59 5.2 SE 17 22 9 12 1016.5 - 0.0
20/08:00am 22.4 24.1 19.4 83 1.9 ESE 9 13 5 7 1016.3 - 0.0
20/07:30am 20.6 22.4 18.7 89 1.2 ESE 7 11 4 6 1016.0 - 0.0
20/07:00am 20.0 21.8 18.7 92 0.8 SE 7 9 4 5 1015.8 - 0.0
20/06:30am 19.0 20.4 17.8 93 0.7 SE 7 11 4 6 1015.6 - 0.0
20/06:00am 19.4 21.1 18.1 92 0.8 SSE 6 7 3 4 1015.2 1015.2 0.0
20/05:30am 19.6 22.5 18.1 91 0.9 CALM 0 0 0 0 1015.0 - 0.0
20/05:00am 19.9 22.0 18.2 90 1.1 WSW 4 7 2 4 1014.7 - 0.0
20/04:30am 20.0 22.9 18.1 89 1.2 CALM 0 0 0 0 1014.5 - 0.0
20/04:00am 20.6 23.7 19.4 93 0.8 WNW 2 6 1 3 1014.2 - 0.0
20/03:30am 20.1 22.3 19.1 94 0.6 WNW 6 7 3 4 1014.3 - 0.0
20/03:00am 20.4 22.7 19.4 94 0.6 WNW 6 7 3 4 1014.4 1014.4 0.0
20/02:30am 20.6 22.7 19.4 93 0.8 W 7 9 4 5 1014.6 - 0.0
20/02:00am 20.5 22.1 19.2 92 0.8 NW 9 11 5 6 1014.6 - 0.0
20/01:30am 20.7 22.3 19.2 91 0.9 NW 9 9 5 5 1014.5 - 0.0
20/01:00am 20.8 22.9 19.3 91 0.9 WNW 7 9 4 5 1014.7 - 0.0
20/12:30am 20.7 22.0 19.2 91 0.9 WNW 11 13 6 7 1014.8 - 0.0
20/12:00am 20.6 22.0 18.7 89 1.2 NW 9 11 5 6 1014.8 1014.8 0.0
 
Date/Time
WST
Temp
°C
App
Temp
°C
Dew
Point
°C
Rel
Hum
%
Delta-T
°C
Wind Press
QNH
hPa
Press
MSL
hPa
Rain since
9am
mm
Dir  Spd
km/h
Gust
km/h
Spd
kts
Gust
kts
19/11:30pm 21.1 21.8 18.9 87 1.4 WNW 13 15 7 8 1015.0 - 0.0
19/11:00pm 21.3 22.4 18.9 86 1.5 WNW 11 13 6 7 1015.0 - 0.0
19/10:30pm 20.9 21.8 18.5 86 1.5 NW 11 13 6 7 1015.3 - 0.0
19/10:00pm 21.8 22.0 18.6 82 2.0 WNW 15 17 8 9 1015.3 - 0.0
19/09:30pm 21.8 21.8 18.2 80 2.2 WNW 15 17 8 9 1015.1 - 0.0
19/09:00pm 21.9 21.9 18.1 79 2.4 WNW 15 17 8 9 1015.1 1015.1 0.0
19/08:30pm 22.3 22.4 18.3 78 2.5 WNW 15 19 8 10 1015.0 - 0.0
19/08:00pm 22.4 22.0 18.0 76 2.7 W 17 20 9 11 1015.0 - 0.0
19/07:30pm 22.4 22.4 18.0 76 2.7 W 15 19 8 10 1014.8 - 0.0
19/07:00pm 22.6 22.1 17.9 75 2.9 W 17 20 9 11 1014.3 - 0.0
19/06:30pm 23.0 22.2 17.9 73 3.2 WNW 19 24 10 13 1014.0 - 0.0
19/06:00pm 23.5 21.8 18.2 72 3.3 WNW 24 30 13 16 1013.7 1013.7 0.0
19/05:30pm 24.5 22.2 16.7 61 4.8 WNW 24 32 13 17 1013.5 - 0.0
19/05:00pm 25.2 22.8 17.4 62 4.9 WNW 26 30 14 16 1013.1 - 0.0
19/04:30pm 27.2 25.1 16.2 51 6.8 NW 22 30 12 16 1012.8 - 0.0
19/04:00pm 28.0 24.5 14.6 44 8.1 NW 26 32 14 17 1012.9 - 0.0
19/03:30pm 29.1 25.2 12.1 35 9.9 NW 24 32 13 17 1012.9 - 0.0
19/03:00pm 29.9 26.2 11.4 32 10.7 WNW 22 28 12 15 1012.9 1012.9 0.0
19/02:30pm 29.7 25.4 12.2 34 10.2 NW 26 33 14 18 1013.0 - 0.0
19/02:00pm 29.9 25.4 11.4 32 10.7 NW 26 32 14 17 1013.2 - 0.0
19/01:30pm 30.1 26.5 13.0 35 10.1 NW 24 32 13 17 1013.3 - 0.0
19/01:00pm 30.0 26.4 12.9 35 10.1 NW 24 32 13 17 1013.5 - 0.0
19/12:30pm 29.8 28.1 16.2 43 8.5 NW 20 26 11 14 1013.9 - 0.0
19/12:00pm 29.4 27.3 16.2 44 8.2 WNW 22 32 12 17 1014.3 1014.3 0.0

Other Formats:

Comma delimited format used in spreadsheet applications
http://www.bom.gov.au/fwo/IDW60801/IDW60801.94312.axf

JavaScript Object Notation format (JSON) in row-major order
http://www.bom.gov.au/fwo/IDW60801/IDW60801.94312.json